Погода Кампос Гераисна 2 недели

Минас-Жерайс, Бразилия

22 июля-04 августа
  • 22июля
    Сегодня
    +10°
    +25°
    Ясно и безоблачно
    ВремяПогодаТемператураВлажностьДавлениеВетер, м/сВероятность осадков
    00:00Ясно и безоблачно+14°C78 %690 мм1.8 м/с5 %
    03:00Ясно и безоблачно+12°C85 %690 мм2.0 м/с5 %
    06:00Ясно и безоблачно+9°C94 %690 мм2.1 м/с5 %
    09:00Ясно и безоблачно+15°C74 %692 мм0.5 м/с5 %
    12:00Ясно и безоблачно+21°C53 %693 мм1.3 м/с5 %
    15:00Ясно и безоблачно+25°C36 %692 мм1.4 м/с5 %
    18:00Ясно и безоблачно+19°C57 %690 мм2.3 м/с5 %
    21:00Ясно и безоблачно+17°C64 %691 мм1.9 м/с5 %
  • 23июля
    Вторник
    +10°
    +27°
    Ясно и безоблачно
    ВремяПогодаТемператураВлажностьДавлениеВетер, м/сВероятность осадков
    00:00Ясно и безоблачно+15°C70 %690 мм2.5 м/с5 %
    03:00Ясно и безоблачно+13°C75 %690 мм2.7 м/с5 %
    06:00Ясно и безоблачно+10°C83 %690 мм2.2 м/с5 %
    09:00Ясно и безоблачно+16°C58 %692 мм1.9 м/с5 %
    12:00Ясно и безоблачно+23°C27 %693 мм2.4 м/с5 %
    15:00Ясно и безоблачно+26°C23 %692 мм2.0 м/с5 %
    18:00Ясно и безоблачно+19°C43 %690 мм2.7 м/с5 %
    21:00Ясно и безоблачно+18°C42 %691 мм3.2 м/с5 %
  • 24июля
    Среда
    +10°
    +26°
    Облачно с прояснениями
    ВремяПогодаТемператураВлажностьДавлениеВетер, м/сВероятность осадков
    00:00Ясно и безоблачно+16°C58 %692 мм4.5 м/с5 %
    03:00Практически безоблачно+13°C74 %691 мм3.6 м/с5 %
    06:00Ясно и безоблачно+11°C87 %691 мм2.3 м/с5 %
    09:00Ясно и безоблачно+15°C70 %693 мм2.3 м/с5 %
    12:00Небольшая облачность+22°C48 %693 мм1.8 м/с5 %
    15:00Облачно с прояснениями+26°C39 %692 мм1.0 м/с5 %
    18:00Практически безоблачно+23°C43 %692 мм0.6 м/с5 %
    21:00Небольшая облачность+17°C60 %691 мм2.0 м/с5 %
  • 25июля
    Четверг
    +9°
    +26°
    Ясно и безоблачно
    ВремяПогодаТемператураВлажностьДавлениеВетер, м/сВероятность осадков
    00:00Облачно с прояснениями+16°C71 %691 мм4.0 м/с5 %
    03:00Ясно и безоблачно+14°C80 %690 мм3.3 м/с5 %
    06:00Ясно и безоблачно+11°C91 %690 мм1.8 м/с5 %
    09:00Ясно и безоблачно+16°C71 %692 мм0.9 м/с5 %
    12:00Практически безоблачно+22°C49 %692 мм1.1 м/с5 %
    15:00Ясно и безоблачно+26°C36 %691 мм1.6 м/с5 %
    18:00Ясно и безоблачно+23°C39 %690 мм1.0 м/с5 %
    21:00Ясно и безоблачно+18°C58 %689 мм1.9 м/с5 %
  • 26июля
    Пятница
    +12°
    +27°
    Облачно с прояснениями
    ВремяПогодаТемператураВлажностьДавлениеВетер, м/сВероятность осадков
    00:00Ясно и безоблачно+15°C74 %689 мм1.6 м/с5 %
    03:00Ясно и безоблачно+12°C84 %687 мм1.7 м/с5 %
    06:00Ясно и безоблачно+10°C91 %688 мм2.0 м/с5 %
    09:00Ясно и безоблачно+17°C62 %690 мм1.0 м/с5 %
    12:00Облачно с прояснениями+23°C39 %691 мм1.1 м/с5 %
    15:00Облачно с прояснениями+27°C32 %690 мм1.1 м/с5 %
    18:00Облачно с прояснениями+20°C53 %689 мм2.4 м/с5 %
    21:00Облачно с прояснениями+19°C56 %689 мм1.9 м/с5 %
Мы используем cookies
Соглашаюсь